Search for airport 
image banner adimage banner ad
image banner ad

SIFQ - Condomínio Menega Airport

Located in Flores Da Cunha, Brazil

ICAO - SIFQ, IATA -

Data provided by Airmate  

General information

Coordinates: S29°2'41" W51°8'36"
Elevation is 2565 feet MSL.
Magnetic variation is -17° East
View others Airports in Rio Grande do Sul

Operational data

Open for public use
Current time UTC:
Current local time:
METAR: SBCX 021400Z 03006KT 9999 FEW040TCU 26/19 Q1014
View NOTAMs / SUP AIP / TFR affecting this airport [VIEW]
Communications frequencies: [VIEW]

Runways:

RWY identifierQFULength (ft)Width (ft)SurfaceLDA (ft)
10246059GRASS
28246059GRASS

Airport contact information

Address: Flores Da Cunha Brazil

Satellite view of SIFQ